Time;durP1;ratioP1;P1;durP2;ratioP2;P2;SDS_P1;SDS_P2;PMS_P1;PMS_P2;Temp;Humidity;BMP_temperature;BMP_pressure;BME280_temperature;BME280_humidity;BME280_pressure;Samples;Min_cycle;Max_cycle;Signal;HPM_P1;HPM_P2
2022/07/11 00:00:11;;;;;;;6.42;3.40;;;;;;;16.71;92.27;146363.88;1764411;81;21019;-54
2022/07/11 00:02:42;;;;;;;6.45;4.12;;;;;;;16.71;92.27;146363.88;1764677;80;21008;-54
2022/07/11 00:05:09;;;;;;;6.30;3.37;;;;;;;16.70;92.33;146361.31;1764837;80;21520;-55
2022/07/11 00:07:38;;;;;;;10.18;3.42;;;;;;;16.66;92.39;146349.97;1764371;80;21016;-54
2022/07/11 00:10:07;;;;;;;8.93;3.77;;;;;;;16.61;92.48;146338.66;1764456;80;21553;-53
2022/07/11 00:12:35;;;;;;;6.35;3.05;;;;;;;16.59;92.64;146332.31;1764616;80;21067;-54
2022/07/11 00:15:04;;;;;;;4.40;2.65;;;;;;;16.56;92.78;146326.02;1764378;80;21004;-54
2022/07/11 00:17:32;;;;;;;5.75;3.30;;;;;;;16.55;92.85;146322.27;1764829;81;21489;-54
2022/07/11 00:20:00;;;;;;;5.42;2.98;;;;;;;16.52;93.03;146315.97;1764367;80;21023;-53
2022/07/11 00:22:28;;;;;;;7.03;3.35;;;;;;;16.47;93.24;146304.63;1764693;80;21023;-55
2022/07/11 00:24:54;;;;;;;6.22;3.77;;;;;;;16.42;93.46;146290.77;1764512;80;21031;-53
2022/07/11 00:27:21;;;;;;;6.37;3.30;;;;;;;16.35;93.83;146273.12;1764700;80;20996;-54
2022/07/11 00:29:49;;;;;;;7.90;4.53;;;;;;;16.31;94.24;146263.03;1764373;80;21651;-54
2022/07/11 00:32:16;;;;;;;6.50;3.60;;;;;;;16.26;94.63;146251.72;1764507;80;21087;-54
2022/07/11 00:34:43;;;;;;;7.00;3.83;;;;;;;16.22;94.99;146242.88;1764360;80;21000;-54
2022/07/11 00:37:10;;;;;;;7.65;3.80;;;;;;;16.19;95.37;146235.33;1764404;80;21476;-54
2022/07/11 00:39:38;;;;;;;6.62;3.80;;;;;;;16.14;96.03;146221.48;1764298;80;21067;-54
2022/07/11 00:42:05;;;;;;;6.78;3.37;;;;;;;16.08;96.43;146206.34;1772660;79;21078;-54
2022/07/11 00:44:35;;;;;;;7.08;3.55;;;;;;;16.04;96.92;146197.53;1775447;79;21148;-54
2022/07/11 00:47:03;;;;;;;8.05;3.72;;;;;;;15.99;97.34;146184.94;1775512;79;21043;-52
2022/07/11 00:49:30;;;;;;;9.65;3.58;;;;;;;15.97;97.63;146181.16;1775737;79;20972;-55
2022/07/11 00:51:58;;;;;;;5.87;3.20;;;;;;;15.95;97.84;146174.84;1775497;79;20988;-54
2022/07/11 00:54:27;;;;;;;5.28;3.40;;;;;;;15.95;97.92;146174.84;1775438;79;20996;-54
2022/07/11 00:56:54;;;;;;;7.78;3.55;;;;;;;15.96;97.96;146177.41;1775745;79;20979;-54
2022/07/11 00:59:21;;;;;;;6.10;3.40;;;;;;;15.96;97.99;146177.41;1775499;79;20995;-53
2022/07/11 01:01:48;;;;;;;9.03;3.33;;;;;;;15.94;98.12;146173.59;1775560;79;21027;-54
2022/07/11 01:04:16;;;;;;;7.28;4.10;;;;;;;15.91;98.34;146164.81;1775479;79;21042;-54
2022/07/11 01:06:43;;;;;;;8.40;3.75;;;;;;;15.88;98.50;146157.25;1775481;81;21003;-54
2022/07/11 01:09:11;;;;;;;7.25;3.87;;;;;;;15.87;98.58;146154.72;1775448;79;21089;-54
2022/07/11 01:11:38;;;;;;;10.72;4.25;;;;;;;15.87;98.70;146154.72;1775723;79;21027;-54
2022/07/11 01:14:05;;;;;;;8.95;4.78;;;;;;;15.86;98.70;146153.47;1775533;80;21078;-54
2022/07/11 01:16:32;;;;;;;7.75;4.67;;;;;;;15.86;98.71;146152.22;1775759;79;20999;-54
2022/07/11 01:18:58;;;;;;;6.60;4.30;;;;;;;15.85;98.65;146150.97;1775455;79;21023;-55
2022/07/11 01:21:40;;;;;;;10.30;4.97;;;;;;;15.82;98.62;146144.66;1775450;79;21138;-53
2022/07/11 01:24:09;;;;;;;9.55;4.58;;;;;;;15.81;98.72;146142.13;1775604;81;21096;-55
2022/07/11 01:26:37;;;;;;;7.92;4.50;;;;;;;15.81;98.75;146142.13;1775570;79;21552;-55
2022/07/11 01:29:14;;;;;;;7.42;4.28;;;;;;;15.81;98.73;146140.88;1775524;80;21027;-55
2022/07/11 01:31:44;;;;;;;9.95;5.00;;;;;;;15.82;98.66;146144.66;1775444;79;21528;-53
2022/07/11 01:34:12;;;;;;;9.60;4.67;;;;;;;15.82;98.56;146144.66;1776340;79;21028;-53
2022/07/11 01:36:39;;;;;;;8.13;4.80;;;;;;;15.80;98.63;146139.63;1775420;79;21084;-54
2022/07/11 01:39:06;;;;;;;10.82;4.60;;;;;;;15.76;98.60;146128.28;1775549;79;20988;-53
2022/07/11 01:41:33;;;;;;;9.45;5.40;;;;;;;15.72;98.80;146118.19;1775422;81;21059;-54
2022/07/11 01:44:00;;;;;;;8.30;4.90;;;;;;;15.69;99.08;146111.89;1775518;79;21066;-53
2022/07/11 01:46:27;;;;;;;11.33;4.97;;;;;;;15.67;99.15;146106.78;1775455;79;21069;-53
2022/07/11 01:48:54;;;;;;;8.60;4.10;;;;;;;15.68;99.18;146108.09;1775417;79;21000;-54
2022/07/11 01:51:23;;;;;;;7.30;4.08;;;;;;;15.68;99.18;146109.34;1775485;79;21477;-54
2022/07/11 01:53:50;;;;;;;7.92;4.10;;;;;;;15.65;99.27;146101.80;1775762;79;21034;-54
2022/07/11 01:56:17;;;;;;;6.75;3.87;;;;;;;15.63;99.37;146096.75;1775446;79;21087;-53
2022/07/11 01:58:44;;;;;;;6.62;3.92;;;;;;;15.59;99.54;146086.66;1775492;79;21051;-54
2022/07/11 02:01:11;;;;;;;6.42;3.70;;;;;;;15.55;99.73;146076.61;1775549;79;21080;-54
2022/07/11 02:03:38;;;;;;;7.22;3.83;;;;;;;15.55;99.88;146076.61;1775446;79;21428;-53
2022/07/11 02:06:06;;;;;;;5.95;3.25;;;;;;;15.54;99.94;146074.06;1775469;81;21004;-53
2022/07/11 02:08:33;;;;;;;10.60;4.20;;;;;;;15.54;100.00;146075.31;1775437;79;21035;-58
2022/07/11 02:11:00;;;;;;;6.78;3.22;;;;;;;15.53;100.00;146072.81;1775601;79;21513;-54
2022/07/11 02:13:27;;;;;;;6.40;3.47;;;;;;;15.53;100.00;146071.56;1775472;79;21493;-53
2022/07/11 02:15:53;;;;;;;5.70;2.92;;;;;;;15.53;100.00;146071.56;1775636;81;21027;-53
2022/07/11 02:18:21;;;;;;;5.80;3.10;;;;;;;15.51;100.00;146067.77;1775408;81;21023;-53
2022/07/11 02:20:49;;;;;;;8.13;3.40;;;;;;;15.51;100.00;146067.77;1775503;79;21144;-53
2022/07/11 02:23:17;;;;;;;7.28;3.27;;;;;;;15.54;100.00;146074.06;1775725;80;21028;-53
2022/07/11 02:25:45;;;;;;;5.58;2.70;;;;;;;15.56;100.00;146079.11;1775491;81;21067;-53
2022/07/11 02:28:14;;;;;;;5.05;3.08;;;;;;;15.55;100.00;146076.61;1775445;79;21055;-53
2022/07/11 02:30:43;;;;;;;6.20;3.30;;;;;;;15.58;100.00;146084.16;1775515;79;21470;-53
2022/07/11 02:33:15;;;;;;;5.50;3.20;;;;;;;15.61;100.00;146091.70;1775760;81;21050;-54
2022/07/11 02:35:46;;;;;;;8.03;3.35;;;;;;;15.66;100.00;146104.30;1775691;79;21051;-54
2022/07/11 02:38:14;;;;;;;5.22;2.90;;;;;;;15.71;100.00;146115.69;1775815;79;21015;-54
2022/07/11 02:40:41;;;;;;;4.70;2.67;;;;;;;15.72;100.00;146118.19;1775455;79;21034;-54
2022/07/11 02:43:09;;;;;;;6.95;3.02;;;;;;;15.72;100.00;146119.48;1765056;80;21044;-54
2022/07/11 02:45:36;;;;;;;5.87;2.85;;;;;;;15.74;99.99;146124.47;1764263;80;21164;-54
2022/07/11 02:48:03;;;;;;;5.42;2.47;;;;;;;15.76;99.62;146129.53;1764281;80;21020;-56
2022/07/11 02:50:31;;;;;;;8.00;2.90;;;;;;;15.76;99.53;146128.28;1764316;80;21509;-56
2022/07/11 02:52:58;;;;;;;5.12;2.92;;;;;;;15.76;99.46;146128.28;1764387;80;21524;-57
2022/07/11 02:55:24;;;;;;;5.80;2.83;;;;;;;15.76;99.41;146129.53;1764315;81;21544;-56
2022/07/11 02:57:51;;;;;;;4.53;2.98;;;;;;;15.76;99.41;146129.53;1764394;80;21494;-56
2022/07/11 03:00:19;;;;;;;5.20;3.00;;;;;;;15.79;99.28;146137.06;1764531;80;21032;-56
2022/07/11 03:02:46;;;;;;;6.25;3.10;;;;;;;15.79;99.17;146137.06;1764515;80;21506;-56
2022/07/11 03:05:13;;;;;;;6.53;3.25;;;;;;;15.80;99.14;146139.63;1764492;81;21545;-56
2022/07/11 03:07:40;;;;;;;8.30;4.10;;;;;;;15.85;98.73;146150.97;1764099;80;21019;-55
2022/07/11 03:10:09;;;;;;;9.43;4.55;;;;;;;15.82;98.61;146144.66;1779991;79;21087;-56
2022/07/11 03:12:36;;;;;;;8.13;4.50;;;;;;;15.86;98.52;146152.22;1774133;80;21028;-55
2022/07/11 03:15:03;;;;;;;12.63;6.47;;;;;;;15.87;98.60;146154.72;1765402;81;20993;-55
2022/07/11 03:17:31;;;;;;;17.27;7.58;;;;;;;15.87;98.60;146154.72;1773077;80;21126;-55
2022/07/11 03:19:57;;;;;;;21.07;8.73;;;;;;;15.87;98.32;146154.72;1779408;80;21020;-56
2022/07/11 03:22:26;;;;;;;18.32;9.15;;;;;;;15.89;98.28;146159.75;1778567;80;21016;-55
2022/07/11 03:24:53;;;;;;;16.37;9.65;;;;;;;15.92;98.18;146167.31;1768946;80;21588;-56
2022/07/11 03:27:20;;;;;;;23.40;11.88;;;;;;;15.96;98.18;146178.66;1776097;80;21049;-56
2022/07/11 03:29:48;;;;;;;22.00;12.28;;;;;;;16.02;97.75;146193.75;1773543;80;21020;-55
2022/07/11 03:32:14;;;;;;;23.87;12.58;;;;;;;16.03;97.44;146195.05;1774783;80;21064;-55
2022/07/11 03:35:40;;;;;;;27.60;13.75;;;;;;;16.01;97.48;146190.00;1778518;81;21039;-54
2022/07/11 03:37:11;;;;;;;28.47;15.00;;;;;;;16.01;97.41;146191.25;1775612;80;21024;-55
2022/07/11 03:39:38;;;;;;;31.52;15.78;;;;;;;16.01;97.39;146190.00;1782504;80;21075;-57
2022/07/11 03:42:05;;;;;;;29.07;15.28;;;;;;;16.03;97.22;146196.28;1777263;80;21004;-56
2022/07/11 03:44:32;;;;;;;32.00;17.15;;;;;;;16.06;97.21;146202.59;1761682;80;21044;-57
2022/07/11 03:47:00;;;;;;;40.28;19.40;;;;;;;16.12;97.15;146216.44;1770583;80;21063;-56
2022/07/11 03:49:27;;;;;;;33.30;17.52;;;;;;;16.21;96.78;146239.12;1777982;81;21052;-56
2022/07/11 03:51:54;;;;;;;42.15;20.25;;;;;;;16.30;96.41;146260.53;1775708;80;21024;-57
2022/07/11 03:54:22;;;;;;;41.00;20.43;;;;;;;16.32;95.96;146265.56;1760826;80;21080;-56
2022/07/11 03:56:48;;;;;;;40.80;21.55;;;;;;;16.32;95.93;146266.81;1766459;80;20981;-58
2022/07/11 03:59:17;;;;;;;45.03;22.42;;;;;;;16.37;95.69;146278.17;1785155;80;21043;-56
2022/07/11 04:01:44;;;;;;;45.00;23.05;;;;;;;16.39;95.42;146283.22;1794088;80;21495;-56
2022/07/11 04:04:11;;;;;;;39.42;20.95;;;;;;;16.39;95.15;146283.22;1778435;80;20993;-55
2022/07/11 04:06:39;;;;;;;42.05;21.02;;;;;;;16.42;95.09;146292.02;1740339;81;21095;-61
2022/07/11 04:09:06;;;;;;;44.67;21.80;;;;;;;16.43;94.86;146293.27;1776551;80;21048;-58
2022/07/11 04:11:34;;;;;;;43.65;21.95;;;;;;;16.44;94.76;146295.81;1764896;80;21095;-58
2022/07/11 04:14:01;;;;;;;50.80;21.45;;;;;;;16.41;94.80;146288.22;1774858;80;21040;-55
2022/07/11 04:16:28;;;;;;;36.65;20.50;;;;;;;16.43;94.84;146294.52;1759586;80;21065;-55
2022/07/11 04:18:55;;;;;;;35.78;19.10;;;;;;;16.52;94.54;146315.97;1786982;80;21102;-57
2022/07/11 04:21:21;;;;;;;32.75;17.73;;;;;;;16.53;94.14;146317.22;1774951;80;21568;-63
2022/07/11 04:23:48;;;;;;;34.95;18.25;;;;;;;16.57;93.83;146328.56;1787427;80;21500;-55
2022/07/11 04:26:15;;;;;;;34.88;17.60;;;;;;;16.57;93.52;146327.31;1779491;80;21497;-56
2022/07/11 04:28:44;;;;;;;31.75;16.52;;;;;;;16.55;93.56;146322.27;1766982;80;21059;-55
2022/07/11 04:31:10;;;;;;;31.82;17.20;;;;;;;16.50;93.52;146312.17;1775282;80;20973;-55
2022/07/11 04:33:37;;;;;;;29.87;16.60;;;;;;;16.46;93.75;146302.13;1782789;80;21011;-56
2022/07/11 04:36:06;;;;;;;31.05;16.23;;;;;;;16.40;93.97;146285.72;1774801;80;21047;-55
2022/07/11 04:38:33;;;;;;;30.97;15.95;;;;;;;16.41;94.15;146289.52;1778271;81;21051;-56
2022/07/11 04:41:00;;;;;;;31.23;16.40;;;;;;;16.44;94.12;146297.06;1757109;80;21091;-56
2022/07/11 04:43:26;;;;;;;28.07;17.00;;;;;;;16.48;94.12;146305.87;1779329;80;21522;-56
2022/07/11 04:45:53;;;;;;;37.42;17.17;;;;;;;16.54;94.17;146319.72;1753322;80;21064;-55
2022/07/11 04:48:20;;;;;;;29.80;16.32;;;;;;;16.58;93.83;146331.06;1768001;80;21071;-55
2022/07/11 04:50:47;;;;;;;29.70;15.40;;;;;;;16.55;93.90;146323.52;1773262;80;21056;-55
2022/07/11 04:53:14;;;;;;;36.13;15.60;;;;;;;16.53;93.94;146318.47;1780663;80;21047;-56
2022/07/11 04:55:43;;;;;;;29.40;14.33;;;;;;;16.56;93.91;146326.02;1780686;80;20984;-55
2022/07/11 04:58:11;;;;;;;28.15;14.80;;;;;;;16.61;93.69;146338.66;1768731;80;21028;-56
2022/07/11 05:00:38;;;;;;;28.45;15.28;;;;;;;16.69;93.48;146357.56;1776619;81;21059;-56
2022/07/11 05:03:04;;;;;;;28.57;15.05;;;;;;;16.71;93.36;146363.88;1776890;81;20957;-55
2022/07/11 05:05:31;;;;;;;30.55;14.98;;;;;;;16.73;93.05;146366.37;1785580;80;20988;-56
2022/07/11 05:07:58;;;;;;;28.07;14.07;;;;;;;16.75;93.13;146371.42;1788906;80;21017;-55
2022/07/11 05:10:25;;;;;;;33.13;14.65;;;;;;;16.80;93.09;146384.06;1774442;81;20989;-57
2022/07/11 05:12:52;;;;;;;21.75;12.58;;;;;;;16.86;92.70;146399.17;1758231;81;21628;-57
2022/07/11 05:15:20;;;;;;;24.65;13.32;;;;;;;16.86;92.46;146400.42;1767385;80;20984;-56
2022/07/11 05:17:47;;;;;;;24.27;12.50;;;;;;;16.92;92.28;146414.33;1759055;80;21577;-58
2022/07/11 05:20:14;;;;;;;25.95;13.15;;;;;;;16.90;91.95;146409.28;1747218;80;21036;-58
2022/07/11 05:22:41;;;;;;;20.97;12.53;;;;;;;16.90;92.21;146410.53;1765971;80;21105;-59
2022/07/11 05:25:09;;;;;;;22.42;12.45;;;;;;;17.00;91.96;146434.48;1776691;80;21079;-58
2022/07/11 05:27:36;;;;;;;24.02;11.90;;;;;;;17.08;91.89;146453.39;1769865;81;21052;-57
2022/07/11 05:30:03;;;;;;;24.63;12.37;;;;;;;17.22;91.08;146487.41;1774257;80;21016;-57
2022/07/11 05:32:30;;;;;;;18.82;10.58;;;;;;;17.32;90.78;146512.63;1787516;80;21013;-57
2022/07/11 05:34:58;;;;;;;20.32;11.28;;;;;;;17.50;90.29;146558.05;1785542;80;21144;-57
2022/07/11 05:37:25;;;;;;;22.02;11.57;;;;;;;17.69;89.31;146603.44;1780815;80;21071;-58
2022/07/11 05:39:52;;;;;;;23.02;12.10;;;;;;;17.78;88.43;146626.11;1768263;80;21008;-59
2022/07/11 05:42:18;;;;;;;27.50;11.78;;;;;;;17.83;88.04;146637.50;1775379;80;22093;-59
2022/07/11 05:44:45;;;;;;;23.60;11.08;;;;;;;17.97;87.78;146672.84;1776039;80;21016;-59
2022/07/11 05:47:12;;;;;;;22.20;11.88;;;;;;;18.17;87.33;146722.05;1778653;80;21043;-58
2022/07/11 05:49:39;;;;;;;26.33;11.18;;;;;;;18.41;86.23;146782.58;1778391;80;21620;-58
2022/07/11 05:52:06;;;;;;;20.88;11.50;;;;;;;18.64;85.37;146838.11;1772828;80;21518;-58
2022/07/11 05:54:33;;;;;;;26.33;11.30;;;;;;;18.96;84.23;146916.44;1778449;80;21000;-58
2022/07/11 05:57:02;;;;;;;18.40;10.45;;;;;;;19.62;81.69;147079.31;1771509;81;21044;-58
2022/07/11 05:59:29;;;;;;;23.25;11.38;;;;;;;20.46;77.07;147287.78;1776161;81;21099;-58
2022/07/11 06:01:57;;;;;;;16.77;9.78;;;;;;;21.01;74.71;147423.03;1777799;81;21513;-58
2022/07/11 06:04:23;;;;;;;21.20;9.95;;;;;;;21.77;72.11;147611.50;1761098;81;21521;-59
2022/07/11 06:06:50;;;;;;;18.40;9.98;;;;;;;22.50;69.60;147792.47;1747758;81;21067;-61
2022/07/11 06:09:16;;;;;;;16.40;9.55;;;;;;;22.88;66.60;147886.13;1773846;81;21481;-59
2022/07/11 06:11:43;;;;;;;19.70;8.70;;;;;;;23.41;64.78;148016.58;1765384;81;21161;-58
2022/07/11 06:14:10;;;;;;;17.45;9.45;;;;;;;23.85;62.56;148125.53;1775556;80;21032;-58
2022/07/11 06:16:37;;;;;;;16.77;7.80;;;;;;;24.36;61.17;148252.19;1794230;80;21486;-58
2022/07/11 06:19:03;;;;;;;18.73;8.55;;;;;;;24.76;58.58;148351.09;1794375;80;21039;-58
2022/07/11 06:21:30;;;;;;;14.68;7.92;;;;;;;24.66;58.39;148327.00;1793933;80;21118;-59
2022/07/11 06:23:57;;;;;;;16.82;7.90;;;;;;;24.68;58.38;148330.83;1766447;80;21569;-55
2022/07/11 06:26:23;;;;;;;14.13;6.80;;;;;;;24.80;58.16;148361.20;1771608;81;21110;-56
2022/07/11 06:28:50;;;;;;;12.10;6.87;;;;;;;24.61;57.70;148314.34;1777338;80;21024;-55
2022/07/11 06:31:17;;;;;;;14.65;6.72;;;;;;;24.52;58.22;148290.25;1771007;80;21024;-54
2022/07/11 06:33:44;;;;;;;14.73;7.45;;;;;;;24.86;57.73;148376.44;1778646;81;21024;-54
2022/07/11 06:36:11;;;;;;;16.97;6.15;;;;;;;25.07;57.14;148428.41;1778322;81;21036;-58
2022/07/11 06:38:38;;;;;;;13.13;6.20;;;;;;;25.17;55.85;148452.53;1780333;80;21091;-57
2022/07/11 06:41:06;;;;;;;10.00;5.42;;;;;;;25.36;55.95;148498.17;1766124;80;21043;-59
2022/07/11 06:43:33;;;;;;;11.60;5.40;;;;;;;25.65;54.37;148570.47;1788301;80;21068;-60
2022/07/11 06:46:00;;;;;;;8.95;5.10;;;;;;;25.46;54.00;148523.53;1786528;80;21454;-59
2022/07/11 06:48:28;;;;;;;10.05;4.75;;;;;;;25.03;55.03;148418.25;1775497;81;20965;-60
2022/07/11 06:50:55;;;;;;;8.65;4.83;;;;;;;24.80;55.26;148359.95;1780679;80;21035;-59
2022/07/11 06:53:22;;;;;;;11.03;5.00;;;;;;;24.44;55.78;148272.45;1786276;80;21060;-56
2022/07/11 06:55:49;;;;;;;8.10;4.70;;;;;;;24.05;56.97;148176.19;1745314;80;21059;-54
2022/07/11 06:58:31;;;;;;;8.28;5.17;;;;;;;23.85;57.63;148125.53;1788270;80;21075;-57
2022/07/11 07:00:45;;;;;;;10.20;4.95;;;;;;;23.62;58.32;148068.48;1785989;80;21055;-56
2022/07/11 07:03:12;;;;;;;9.20;4.60;;;;;;;23.70;58.16;148088.73;1779514;80;21100;-56
2022/07/11 07:05:39;;;;;;;8.23;4.20;;;;;;;23.78;57.76;148107.78;1756198;80;21091;-56
2022/07/11 07:08:06;;;;;;;10.72;4.85;;;;;;;23.98;56.93;148158.44;1781442;80;21560;-58
2022/07/11 07:10:33;;;;;;;12.20;4.42;;;;;;;24.32;56.20;148242.03;1766078;80;21502;-55
2022/07/11 07:13:00;;;;;;;10.55;4.12;;;;;;;24.97;54.06;148401.78;1780822;80;21714;-55
2022/07/11 07:15:28;;;;;;;7.85;3.75;;;;;;;25.48;52.06;148528.61;1771507;80;21076;-56
2022/07/11 07:17:55;;;;;;;6.17;3.15;;;;;;;25.76;50.26;148599.61;1774266;80;21004;-56
2022/07/11 07:20:22;;;;;;;7.17;3.10;;;;;;;25.82;50.42;148613.55;1793942;80;21051;-56
2022/07/11 07:22:49;;;;;;;7.42;3.25;;;;;;;25.90;49.59;148633.92;1759189;80;21052;-55
2022/07/11 07:25:17;;;;;;;6.25;3.27;;;;;;;26.02;49.60;148663.06;1762224;81;21037;-55
2022/07/11 07:27:44;;;;;;;8.88;2.72;;;;;;;26.44;48.11;148765.84;1770210;80;20980;-55
2022/07/11 07:30:11;;;;;;;6.05;2.27;;;;;;;26.63;48.09;148815.34;1793515;80;21482;-55
2022/07/11 07:32:38;;;;;;;5.78;2.35;;;;;;;27.14;47.30;148940.98;1780788;80;21102;-55
2022/07/11 07:35:06;;;;;;;7.12;2.45;;;;;;;27.29;45.78;148977.84;1783052;80;21063;-54
2022/07/11 07:37:33;;;;;;;6.37;2.60;;;;;;;27.38;44.66;149000.72;1775213;81;21095;-54
2022/07/11 07:40:00;;;;;;;5.10;1.95;;;;;;;27.35;44.27;148993.11;1778628;80;21016;-55
2022/07/11 07:42:27;;;;;;;5.80;1.87;;;;;;;26.74;45.33;148842.03;1765038;80;21027;-55
2022/07/11 07:44:54;;;;;;;4.70;1.62;;;;;;;26.10;46.68;148682.09;1756207;80;21024;-53
2022/07/11 07:47:20;;;;;;;5.53;1.50;;;;;;;25.54;47.74;148545.11;1768640;81;21096;-56
2022/07/11 07:49:47;;;;;;;3.30;1.40;;;;;;;25.29;48.79;148482.97;1778408;81;21522;-54
2022/07/11 07:52:14;;;;;;;3.67;1.50;;;;;;;25.03;48.01;148416.98;1761845;80;21048;-55
2022/07/11 07:54:41;;;;;;;8.05;1.60;;;;;;;24.62;49.30;148315.59;1786081;80;21110;-55
2022/07/11 07:57:08;;;;;;;3.70;1.45;;;;;;;24.44;50.00;148272.45;1794306;80;21066;-54
2022/07/11 07:59:35;;;;;;;3.37;1.65;;;;;;;24.18;51.06;148206.59;1770709;80;21004;-55
2022/07/11 08:02:04;;;;;;;4.00;1.80;;;;;;;23.94;51.71;148148.34;1772982;80;21083;-54
2022/07/11 08:04:31;;;;;;;4.53;1.62;;;;;;;23.90;52.31;148138.19;1790443;80;21544;-54
2022/07/11 08:06:59;;;;;;;3.45;1.70;;;;;;;24.11;51.26;148188.84;1778255;80;21007;-55
2022/07/11 08:09:26;;;;;;;3.55;1.77;;;;;;;24.03;51.10;148171.11;1778484;80;21027;-54
2022/07/11 08:11:55;;;;;;;4.37;1.40;;;;;;;23.90;51.96;148136.94;1756305;81;21012;-53
2022/07/11 08:14:22;;;;;;;4.28;1.57;;;;;;;23.87;51.85;148130.59;1772296;80;21542;-55
2022/07/11 08:16:49;;;;;;;4.47;1.85;;;;;;;24.01;52.46;148164.78;1778733;81;20993;-56
2022/07/11 08:19:16;;;;;;;3.02;1.50;;;;;;;24.10;52.26;148186.34;1778790;80;21055;-54
2022/07/11 08:21:43;;;;;;;4.35;1.40;;;;;;;24.12;51.42;148191.38;1783657;80;21541;-54
2022/07/11 08:24:10;;;;;;;4.30;1.70;;;;;;;24.01;51.98;148166.03;1778823;81;21059;-55
2022/07/11 08:26:37;;;;;;;4.20;1.50;;;;;;;23.82;52.02;148117.94;1776433;81;21004;-55
2022/07/11 08:29:04;;;;;;;5.53;1.57;;;;;;;23.65;52.14;148074.81;1763101;80;21466;-52
2022/07/11 08:31:32;;;;;;;5.22;1.40;;;;;;;23.55;53.10;148050.75;1772160;80;21612;-52
2022/07/11 08:33:59;;;;;;;3.52;1.47;;;;;;;23.51;53.66;148040.59;1778601;80;21044;-54
2022/07/11 08:36:27;;;;;;;3.42;1.12;;;;;;;23.45;53.85;148026.69;1786235;80;21051;-56
2022/07/11 08:38:54;;;;;;;5.75;1.57;;;;;;;23.42;51.99;148019.09;1794635;80;21436;-57
2022/07/11 08:41:21;;;;;;;4.15;2.33;;;;;;;23.34;52.70;147998.84;1784361;80;21055;-58
2022/07/11 08:43:49;;;;;;;3.65;1.40;;;;;;;23.48;53.06;148034.27;1757825;80;21024;-58
2022/07/11 08:46:17;;;;;;;3.17;1.32;;;;;;;23.31;52.90;147992.52;1774151;80;21057;-57
2022/07/11 08:48:46;;;;;;;3.15;1.30;;;;;;;23.05;54.37;147927.95;1786092;80;21027;-57
2022/07/11 08:51:13;;;;;;;3.90;1.57;;;;;;;22.93;55.17;147897.53;1780442;80;21032;-58
2022/07/11 08:53:43;;;;;;;3.47;1.40;;;;;;;22.92;55.98;147894.97;1770445;81;21542;-57
2022/07/11 08:56:17;;;;;;;3.77;1.42;;;;;;;22.94;55.63;147900.03;1778724;80;21012;-58
2022/07/11 08:58:47;;;;;;;4.22;1.80;;;;;;;23.03;56.14;147922.89;1777406;80;21514;-58
2022/07/11 09:01:16;;;;;;;3.30;1.60;;;;;;;23.11;55.55;147941.88;1789830;80;20944;-56
2022/07/11 09:03:44;;;;;;;4.37;1.80;;;;;;;23.15;55.57;147953.28;1776035;80;21035;-57
2022/07/11 09:06:13;;;;;;;4.85;1.60;;;;;;;23.18;55.04;147959.61;1750554;81;21605;-58
2022/07/11 09:08:40;;;;;;;2.77;1.52;;;;;;;23.29;55.16;147986.19;1743312;81;21044;-58
2022/07/11 09:11:07;;;;;;;7.40;1.92;;;;;;;23.38;55.05;148010.25;1734750;81;21041;-56
2022/07/11 09:13:34;;;;;;;3.02;1.55;;;;;;;23.52;55.23;148043.16;1737033;81;21072;-56
2022/07/11 09:16:03;;;;;;;3.45;1.60;;;;;;;23.78;54.90;148109.03;1732789;81;21033;-55
2022/07/11 09:18:40;;;;;;;4.33;1.70;;;;;;;24.09;53.99;148185.03;1740718;81;21017;-56
2022/07/11 09:26:51;;;;;;;5.00;1.92;;;;;;;24.46;50.83;148277.59;1748480;81;20989;-61
2022/07/11 09:29:27;;;;;;;2.50;1.40;;;;;;;24.22;50.75;148216.70;1752714;81;20997;-61
2022/07/11 09:31:54;;;;;;;4.80;1.57;;;;;;;24.00;50.88;148163.52;1660822;84;21064;-59
2022/07/11 09:34:28;;;;;;;4.40;1.50;;;;;;;23.72;51.22;148093.86;1752762;81;21440;-60
2022/07/11 09:36:56;;;;;;;2.67;1.50;;;;;;;23.60;51.81;148063.41;1671277;84;21105;-59
2022/07/11 09:39:29;;;;;;;4.53;1.50;;;;;;;23.48;52.29;148034.27;1733445;81;21107;-59
2022/07/11 09:41:56;;;;;;;5.97;1.55;;;;;;;23.54;52.96;148048.23;1726458;81;21048;-60
2022/07/11 09:44:33;;;;;;;3.47;1.35;;;;;;;23.53;52.38;148045.67;1666029;83;20977;-62
2022/07/11 09:46:58;;;;;;;3.58;1.67;;;;;;;23.32;52.85;147993.77;1686368;84;21645;-60
2022/07/11 09:49:34;;;;;;;5.17;1.42;;;;;;;23.16;52.63;147955.78;1677734;84;21099;-60
2022/07/11 09:52:13;;;;;;;5.28;1.50;;;;;;;22.91;52.06;147892.45;1675823;84;21034;-61
2022/07/11 09:54:57;;;;;;;5.12;2.55;;;;;;;22.81;52.64;147867.14;1679775;84;21041;-62
2022/07/11 09:57:36;;;;;;;8.40;3.85;;;;;;;22.79;55.60;147862.06;1673421;85;21059;-62
2022/07/11 10:00:07;;;;;;;10.32;4.25;;;;;;;22.60;59.01;147815.27;1740025;81;21052;-62
2022/07/11 10:02:34;;;;;;;10.38;4.30;;;;;;;22.41;60.11;147768.41;1749156;81;21009;-61
2022/07/11 10:05:02;;;;;;;8.23;4.03;;;;;;;22.18;61.29;147712.69;1734027;81;20995;-60
2022/07/11 10:07:30;;;;;;;13.30;4.67;;;;;;;21.95;62.32;147655.77;1747985;81;21498;-60
2022/07/11 10:09:59;;;;;;;7.90;4.20;;;;;;;21.82;63.01;147624.14;1754591;81;21188;-62
2022/07/11 10:12:29;;;;;;;9.88;4.47;;;;;;;21.71;63.45;147596.34;1661360;84;21005;-60
2022/07/11 10:14:57;;;;;;;11.33;4.37;;;;;;;21.68;63.42;147590.02;1674189;84;21022;-61
2022/07/11 10:17:32;;;;;;;8.08;4.30;;;;;;;21.60;63.61;147568.48;1675464;85;21480;-61
2022/07/11 10:20:41;;;;;;;8.83;4.45;;;;;;;21.49;64.09;147541.94;1738812;81;21108;-61
2022/07/11 10:23:16;;;;;;;11.20;4.58;;;;;;;21.58;64.34;147563.47;1666396;84;21061;-62
2022/07/11 10:26:07;;;;;;;11.68;5.10;;;;;;;21.61;64.29;147572.30;1729709;81;21560;-62
2022/07/11 10:28:45;;;;;;;10.13;5.72;;;;;;;21.44;64.32;147529.30;1743006;81;21089;-60
2022/07/11 10:31:21;;;;;;;13.08;6.20;;;;;;;21.11;65.61;147447.06;1739912;81;21032;-61
2022/07/11 10:34:04;;;;;;;11.08;5.70;;;;;;;20.77;66.60;147363.66;1740240;81;22219;-61
2022/07/11 10:36:43;;;;;;;14.80;5.58;;;;;;;20.44;68.44;147281.47;1656059;84;21037;-60
2022/07/11 10:39:24;;;;;;;13.10;5.47;;;;;;;20.16;70.91;147214.48;1740499;81;21119;-60
2022/07/11 10:41:51;;;;;;;16.73;6.17;;;;;;;19.93;72.95;147156.39;1665133;84;21033;-60
2022/07/11 10:44:18;;;;;;;15.98;5.65;;;;;;;19.67;74.52;147093.23;1741478;81;21463;-60
2022/07/11 10:46:45;;;;;;;12.50;6.10;;;;;;;19.43;75.90;147032.56;1746617;81;21481;-62
2022/07/11 10:49:21;;;;;;;12.43;5.50;;;;;;;19.25;75.94;146989.63;1679591;85;21553;-62
2022/07/11 10:51:56;;;;;;;12.07;5.53;;;;;;;19.07;77.00;146944.19;1696362;84;21554;-61
2022/07/11 10:54:40;;;;;;;9.60;5.03;;;;;;;18.91;79.29;146903.81;1713685;83;21071;-60
2022/07/11 10:57:50;;;;;;;9.80;4.72;;;;;;;18.71;80.48;146855.78;1685003;85;21125;-61
2022/07/11 11:00:21;;;;;;;11.15;5.17;;;;;;;18.49;79.68;146801.50;1686010;84;21141;-59
2022/07/11 11:03:11;;;;;;;11.25;4.67;;;;;;;18.34;81.17;146763.66;1683860;84;21080;-61
2022/07/11 11:05:48;;;;;;;10.60;4.85;;;;;;;18.24;81.98;146739.67;1669464;84;21012;-61
2022/07/11 11:08:40;;;;;;;9.80;4.35;;;;;;;18.19;83.25;146727.06;1685254;85;21040;-61
2022/07/11 11:11:21;;;;;;;8.03;4.10;;;;;;;18.15;84.54;146717.00;1689090;83;21095;-59
2022/07/11 11:14:18;;;;;;;8.93;3.50;;;;;;;18.04;84.71;146690.52;1670195;84;21484;-61
2022/07/11 11:16:46;;;;;;;8.53;3.95;;;;;;;17.92;85.74;146661.48;1685085;84;21029;-60
2022/07/11 11:19:50;;;;;;;6.78;3.85;;;;;;;17.82;87.30;146635.00;1684079;85;21051;-59
2022/07/11 11:22:22;;;;;;;12.82;4.08;;;;;;;17.70;86.95;146605.94;1687811;84;21003;-60
2022/07/11 11:24:56;;;;;;;7.25;3.75;;;;;;;17.60;87.86;146581.97;1681136;85;21037;-60
2022/07/11 11:27:25;;;;;;;10.15;4.17;;;;;;;17.61;88.59;146583.27;1687916;84;20996;-59
2022/07/11 11:29:56;;;;;;;13.32;4.55;;;;;;;17.61;89.78;146584.52;1706586;83;21063;-61
2022/07/11 11:32:30;;;;;;;10.28;3.95;;;;;;;17.63;89.03;146588.27;1713533;83;20991;-61